KPOE

Polk AAF Airport

Fort Polk, Louisiana, USA
TAF KPOE 221600Z 2216/2322 14010G15KT 9999 BKN025 520302 QNH2999INS TEMPO 2216/2217 BKN010 BECMG 2223/2224 17012KT 8000 -SHRA OVC010 QNH2995INS BECMG 2305/2306 18012KT 6000 -SHRA OVC007 QNH2994INS BECMG 2310/2311 33015G25KT 6000 -SHRA OVC005 QNH3000INS BECMG 2314/2315 33012G18KT 8000 -SHRA OVC007 QNH3004INS BECMG 2319/2320 33010G15KT 9999 NSW BKN015 QNH3009INS TX18/2221Z TN04/2315Z
Issued Valid From Valid To
Jan-22 @ 16:00 UTC
(54 minutes ago)
Jan-22 @ 16:00 UTC
(54 minutes ago)
Jan-23 @ 22:00 UTC
(-1 days ago)
Jan-22 @ 16:00 to Jan-22 @ 23:00
TAF KPOE 221600Z 2216/2322 14010G15KT 9999 BKN025 520302 QNH2999INS
Wind Visibility Clouds Readings Turbulence
140° at 10 knots
 Gusting to 15 knots
Greater than 6 miles
  • Broken at 2,500' AGL
Altimeter 30" Hg
Pressure 1015.92 hPa
Occasional moderate clear air turbulence expected at 3,000' AGL extending to 5,000' AGL
Temporary Jan-22 @ 16:00 to Jan-22 @ 17:00
TEMPO 2216/2217 BKN010
Clouds
  • Broken at 1,000' AGL
Becoming Jan-22 @ 23:00 to Jan-23 @ 05:00
BECMG 2223/2224 17012KT 8000 -SHRA OVC010 QNH2995INS
Wind Visibility Clouds Conditions Readings
170° at 12 knots 497 miles
  • Overcast at 1,000' AGL
  • Light Rain
Altimeter 29.94" Hg
Pressure 1013.92 hPa
Becoming Jan-23 @ 05:00 to Jan-23 @ 10:00
BECMG 2305/2306 18012KT 6000 -SHRA OVC007 QNH2994INS
Wind Visibility Clouds Conditions Readings
180° at 12 knots 373 miles
  • Overcast at 700' AGL
  • Light Rain
Altimeter 29.94" Hg
Pressure 1013.92 hPa
Becoming Jan-23 @ 10:00 to Jan-23 @ 14:00
BECMG 2310/2311 33015G25KT 6000 -SHRA OVC005 QNH3000INS
Wind Visibility Clouds Conditions Readings
330° at 15 knots
 Gusting to 25 knots
373 miles
  • Overcast at 500' AGL
  • Light Rain
Altimeter 30" Hg
Pressure 1015.92 hPa
Becoming Jan-23 @ 14:00 to Jan-23 @ 19:00
BECMG 2314/2315 33012G18KT 8000 -SHRA OVC007 QNH3004INS
Wind Visibility Clouds Conditions Readings
330° at 12 knots
 Gusting to 18 knots
497 miles
  • Overcast at 700' AGL
  • Light Rain
Altimeter 30.03" Hg
Pressure 1016.92 hPa
Becoming Jan-23 @ 19:00 to Jan-23 @ 22:00
BECMG 2319/2320 33010G15KT 9999 NSW BKN015 QNH3009INS TX18/2221Z TN04/2315Z
Wind Visibility Clouds Conditions Readings
330° at 10 knots
 Gusting to 15 knots
Greater than 6 miles
  • Broken at 1,500' AGL
Altimeter 30.09" Hg
Pressure 1018.92 hPa
TAF KPOE 221600Z 2216/2322 14010G15KT 9999 BKN025 520302 QNH2999INS TEMPO 2216/2217 BKN010 BECMG 2223/2224 17012KT 8000 -SHRA OVC010 QNH2995INS BECMG 2305/2306 18012KT 6000 -SHRA OVC007 QNH2994INS BECMG 2310/2311 33015G25KT 6000 -SHRA OVC005 QNH3000INS BECMG 2314/2315 33012G18KT 8000 -SHRA OVC007 QNH3004INS BECMG 2319/2320 33010G15KT 9999 NSW BKN015 QNH3009INS TX18/2221Z TN04/2315Z
Issued Jan-22 @ 16:00 UTC
(54 minutes ago)
Valid From Jan-22 @ 16:00 UTC
(54 minutes ago)
Valid To Jan-23 @ 22:00 UTC
(-1 days ago)
Jan-22 @ 16:00 - Jan-22 @ 23:00
Wind Visibility
140° at 10 knots
 Gusting to 15 knots
Greater than 6 miles
Clouds
  • Broken at 2,500' AGL
Temporary Jan-22 @ 16:00 - Jan-22 @ 17:00
Clouds
  • Broken at 1,000' AGL
Becoming Jan-22 @ 23:00 - Jan-23 @ 05:00
Wind Visibility
170° at 12 knots 497 miles
Clouds
  • Overcast at 1,000' AGL
Conditions
  • Light Rain
Becoming Jan-23 @ 05:00 - Jan-23 @ 10:00
Wind Visibility
180° at 12 knots 373 miles
Clouds
  • Overcast at 700' AGL
Conditions
  • Light Rain
Becoming Jan-23 @ 10:00 - Jan-23 @ 14:00
Wind Visibility
330° at 15 knots
 Gusting to 25 knots
373 miles
Clouds
  • Overcast at 500' AGL
Conditions
  • Light Rain
Becoming Jan-23 @ 14:00 - Jan-23 @ 19:00
Wind Visibility
330° at 12 knots
 Gusting to 18 knots
497 miles
Clouds
  • Overcast at 700' AGL
Conditions
  • Light Rain
Becoming Jan-23 @ 19:00 - Jan-23 @ 22:00
Wind Visibility
330° at 10 knots
 Gusting to 15 knots
Greater than 6 miles
Clouds
  • Broken at 1,500' AGL
Conditions